createdAt,value
2022-11-24T00:01:15.645Z,48.65
2022-11-24T00:03:44.518Z,54.30
2022-11-24T00:06:15.992Z,49.65
2022-11-24T00:08:45.657Z,52.13
2022-11-24T00:11:15.349Z,49.92
2022-11-24T00:13:42.602Z,51.70
2022-11-24T00:16:12.577Z,48.30
2022-11-24T00:18:40.865Z,51.97
2022-11-24T00:21:08.029Z,56.15
2022-11-24T00:23:35.753Z,58.70
2022-11-24T00:26:19.054Z,51.20
2022-11-24T00:28:47.956Z,54.63
2022-11-24T00:31:33.062Z,58.92
2022-11-24T00:34:02.395Z,48.88
2022-11-24T00:36:32.737Z,57.17
2022-11-24T00:39:01.989Z,54.53
2022-11-24T00:41:30.034Z,48.55
2022-11-24T00:43:57.246Z,53.55
2022-11-24T00:46:25.304Z,54.22
2022-11-24T00:48:52.413Z,48.85
2022-11-24T00:51:21.614Z,56.20
2022-11-24T00:53:48.563Z,50.75
2022-11-24T00:56:15.554Z,46.33
2022-11-24T00:58:42.306Z,50.25
2022-11-24T01:01:15.825Z,61.30
2022-11-24T01:03:42.733Z,52.75
2022-11-24T01:06:14.058Z,52.92
2022-11-24T01:08:41.543Z,55.35
2022-11-24T01:11:17.864Z,56.45
2022-11-24T01:13:46.300Z,53.53
2022-11-24T01:16:18.817Z,52.88
2022-11-24T01:18:46.339Z,53.22
2022-11-24T01:21:13.576Z,57.63
2022-11-24T01:23:41.003Z,52.75
2022-11-24T01:26:09.806Z,57.80
2022-11-24T01:28:40.570Z,57.63
2022-11-24T01:31:11.304Z,51.92
2022-11-24T01:33:38.882Z,50.00
2022-11-24T01:36:06.727Z,49.15
2022-11-24T01:38:34.043Z,54.28
2022-11-24T01:41:06.072Z,52.17
2022-11-24T01:43:34.705Z,53.42
2022-11-24T01:46:30.924Z,56.63
2022-11-24T01:49:20.137Z,55.38
2022-11-24T01:51:59.783Z,50.08
2022-11-24T01:54:33.546Z,59.08
2022-11-24T01:57:23.569Z,49.38
2022-11-24T01:59:55.094Z,54.58
2022-11-24T02:02:22.453Z,52.08
2022-11-24T02:04:51.032Z,55.28
2022-11-24T02:07:18.655Z,47.53
2022-11-24T02:09:51.574Z,50.55
2022-11-24T02:12:18.443Z,51.30
2022-11-24T02:14:46.088Z,49.08
2022-11-24T02:17:12.954Z,54.00
2022-11-24T02:19:39.631Z,53.30
2022-11-24T02:22:28.002Z,47.70
2022-11-24T02:25:03.620Z,50.90
2022-11-24T02:27:30.842Z,51.38
2022-11-24T02:29:57.654Z,52.42
2022-11-24T02:32:24.534Z,50.47
2022-11-24T02:35:03.318Z,49.22
2022-11-24T02:37:30.215Z,47.38
2022-11-24T02:39:56.865Z,53.67
2022-11-24T02:42:25.261Z,51.75
2022-11-24T02:44:57.189Z,46.15
2022-11-24T02:49:50.837Z,44.05
2022-11-24T02:52:17.859Z,42.45
2022-11-24T02:54:44.640Z,49.13
2022-11-24T02:57:11.720Z,42.85
2022-11-24T02:59:38.840Z,45.83
2022-11-24T03:02:06.531Z,44.90
2022-11-24T03:04:33.563Z,43.55
2022-11-24T03:07:00.605Z,40.63
2022-11-24T03:09:27.415Z,43.10
2022-11-24T03:11:54.433Z,43.70
2022-11-24T03:14:21.128Z,46.72
2022-11-24T03:16:47.781Z,43.88
2022-11-24T03:19:14.496Z,45.53
2022-11-24T03:21:41.249Z,43.53
2022-11-24T03:24:07.979Z,47.53
2022-11-24T03:26:35.205Z,41.28
2022-11-24T03:29:01.999Z,41.40
2022-11-24T03:31:28.841Z,43.40
2022-11-24T03:33:55.770Z,38.60
2022-11-24T03:36:22.630Z,42.25
2022-11-24T03:38:50.079Z,40.90
2022-11-24T03:41:16.835Z,47.10
2022-11-24T03:43:44.362Z,47.20
2022-11-24T03:46:12.181Z,40.85
2022-11-24T03:48:39.279Z,42.80
2022-11-24T03:51:06.439Z,43.83
2022-11-24T03:53:34.335Z,45.65
2022-11-24T03:56:02.036Z,41.33
2022-11-24T03:58:29.533Z,45.05
2022-11-24T04:00:57.275Z,45.85
2022-11-24T04:03:24.137Z,44.50
2022-11-24T04:05:52.157Z,42.63
2022-11-24T04:08:19.321Z,44.17
2022-11-24T04:10:50.970Z,43.13
2022-11-24T04:13:19.672Z,42.58
2022-11-24T04:15:46.451Z,41.35
2022-11-24T04:18:13.777Z,47.67
2022-11-24T04:20:41.552Z,44.78
2022-11-24T04:23:10.049Z,46.70
2022-11-24T04:25:37.832Z,47.78
2022-11-24T04:28:04.694Z,45.05
2022-11-24T04:30:31.358Z,41.85
2022-11-24T04:32:58.193Z,46.03
2022-11-24T04:35:25.046Z,46.80
2022-11-24T04:37:51.793Z,52.35
2022-11-24T04:40:19.109Z,48.65
2022-11-24T04:42:56.142Z,45.88
2022-11-24T04:45:23.896Z,49.95
2022-11-24T04:47:51.009Z,49.00
2022-11-24T04:50:18.328Z,46.58
2022-11-24T04:52:45.145Z,48.85
2022-11-24T04:55:12.389Z,52.47
2022-11-24T04:57:39.379Z,50.45
2022-11-24T05:00:07.105Z,48.47
2022-11-24T05:02:33.863Z,50.90
2022-11-24T05:05:00.652Z,52.47
2022-11-24T05:07:27.697Z,50.65
2022-11-24T05:10:13.031Z,48.13
2022-11-24T05:12:39.916Z,46.38
2022-11-24T05:15:07.469Z,50.75
2022-11-24T05:17:36.576Z,53.20
2022-11-24T05:20:05.683Z,56.40
2022-11-24T05:23:01.078Z,56.80
2022-11-24T05:25:27.736Z,49.00
2022-11-24T05:27:54.430Z,53.92
2022-11-24T05:30:21.278Z,49.90
2022-11-24T05:32:47.989Z,52.95
2022-11-24T05:35:15.005Z,52.38
2022-11-24T05:37:41.636Z,51.83
2022-11-24T05:40:08.643Z,54.90
2022-11-24T05:42:46.607Z,56.42
2022-11-24T05:45:20.195Z,52.90
2022-11-24T05:47:47.856Z,57.35
2022-11-24T05:50:16.604Z,58.17
2022-11-24T05:52:43.452Z,57.70
2022-11-24T05:55:11.235Z,52.88
2022-11-24T05:57:37.972Z,54.00
2022-11-24T06:00:07.188Z,53.60
2022-11-24T06:02:34.263Z,60.97
2022-11-24T06:05:01.158Z,57.47
2022-11-24T06:07:27.912Z,63.22
2022-11-24T06:09:54.622Z,56.70
2022-11-24T06:12:21.383Z,59.20
2022-11-24T06:14:48.276Z,51.58
2022-11-24T06:17:15.019Z,58.47
2022-11-24T06:19:42.357Z,56.05
2022-11-24T06:22:09.229Z,55.25
2022-11-24T06:24:36.307Z,49.92
2022-11-24T06:27:03.343Z,59.78
2022-11-24T06:29:30.329Z,59.78
2022-11-24T06:31:57.247Z,58.25
2022-11-24T06:34:24.065Z,57.80
2022-11-24T06:36:50.810Z,57.90
2022-11-24T06:39:17.759Z,64.43
2022-11-24T06:41:44.495Z,63.60
2022-11-24T06:44:11.282Z,56.75
2022-11-24T06:46:38.093Z,61.25
2022-11-24T06:49:04.975Z,57.58
2022-11-24T06:51:31.704Z,57.70
2022-11-24T06:53:58.417Z,61.17
2022-11-24T06:56:25.616Z,56.15
2022-11-24T06:58:53.285Z,58.88
2022-11-24T07:01:23.372Z,59.67
2022-11-24T07:03:51.332Z,58.25
2022-11-24T07:06:18.723Z,57.38
2022-11-24T07:08:46.227Z,58.58
2022-11-24T07:11:15.843Z,59.08
2022-11-24T07:13:43.491Z,55.38
2022-11-24T07:16:19.486Z,55.60
2022-11-24T07:18:47.630Z,61.70
2022-11-24T07:21:15.157Z,54.92
2022-11-24T07:23:42.435Z,62.40
2022-11-24T07:26:10.950Z,56.10
2022-11-24T07:28:38.039Z,57.95
2022-11-24T07:31:09.773Z,51.72
2022-11-24T07:33:36.951Z,60.63
2022-11-24T07:36:05.259Z,56.53
2022-11-24T07:38:32.740Z,63.83
2022-11-24T07:41:04.617Z,61.15
2022-11-24T07:43:32.450Z,58.20
2022-11-24T07:45:59.718Z,56.58
2022-11-24T07:48:27.198Z,51.30
2022-11-24T07:50:56.148Z,52.47
2022-11-24T07:53:23.236Z,53.00
2022-11-24T07:55:55.610Z,50.60
2022-11-24T07:58:22.850Z,50.08
2022-11-24T08:00:49.659Z,55.15
2022-11-24T08:03:16.474Z,46.03
2022-11-24T08:06:01.013Z,49.97
2022-11-24T08:08:34.512Z,48.50
2022-11-24T08:11:10.737Z,48.47
2022-11-24T08:13:38.189Z,47.53
2022-11-24T08:16:19.240Z,51.88
2022-11-24T08:18:51.263Z,47.67
2022-11-24T08:23:45.054Z,44.65
2022-11-24T08:26:16.693Z,47.60
2022-11-24T08:28:44.641Z,48.63
2022-11-24T08:31:18.831Z,50.10
2022-11-24T08:33:46.089Z,43.58
2022-11-24T08:36:15.956Z,45.22
2022-11-24T08:38:44.760Z,43.10
2022-11-24T08:41:16.695Z,40.45
2022-11-24T08:43:43.629Z,40.47
2022-11-24T08:46:13.721Z,41.65
2022-11-24T08:48:41.696Z,44.88
2022-11-24T08:51:14.557Z,38.78
2022-11-24T08:53:42.168Z,41.70
2022-11-24T08:56:09.987Z,39.63
2022-11-24T08:58:37.954Z,42.00
2022-11-24T09:01:06.023Z,38.97
2022-11-24T09:03:33.494Z,37.92
2022-11-24T09:06:01.024Z,38.85
2022-11-24T09:08:30.233Z,41.30
2022-11-24T09:11:05.531Z,40.42
2022-11-24T09:13:32.754Z,43.67
2022-11-24T09:16:08.005Z,40.95
2022-11-24T09:18:34.941Z,36.40
2022-11-24T09:21:10.629Z,45.60
2022-11-24T09:23:38.169Z,37.28
2022-11-24T09:26:09.868Z,42.13
2022-11-24T09:28:36.863Z,40.20
2022-11-24T09:31:06.015Z,40.15
2022-11-24T09:33:33.385Z,40.25
2022-11-24T09:36:00.554Z,35.83
2022-11-24T09:38:27.907Z,39.50
2022-11-24T09:40:58.323Z,39.17
2022-11-24T09:43:49.688Z,35.28
2022-11-24T09:46:25.743Z,39.50
2022-11-24T09:48:56.791Z,36.92
2022-11-24T09:51:29.293Z,33.13
2022-11-24T09:54:09.503Z,37.08
2022-11-24T09:56:40.636Z,36.72
2022-11-24T09:59:18.791Z,35.65
2022-11-24T10:01:47.808Z,38.97
2022-11-24T10:04:17.631Z,38.05
2022-11-24T10:06:53.815Z,36.22
2022-11-24T10:09:36.022Z,39.55
2022-11-24T10:12:21.841Z,37.17
2022-11-24T10:15:16.995Z,36.67
2022-11-24T10:18:21.627Z,37.75
2022-11-24T10:20:55.698Z,39.17
2022-11-24T10:23:54.683Z,38.58
2022-11-24T10:26:34.881Z,43.25
2022-11-24T10:29:08.590Z,43.90
2022-11-24T10:31:42.495Z,39.47
2022-11-24T10:34:31.973Z,43.28
2022-11-24T10:37:13.907Z,38.00
2022-11-24T10:39:54.787Z,43.05
2022-11-24T10:45:01.697Z,41.65
2022-11-24T10:47:28.893Z,43.78
2022-11-24T10:50:02.058Z,42.42
2022-11-24T10:52:32.424Z,41.53
2022-11-24T10:55:01.031Z,40.63
2022-11-24T10:57:39.507Z,42.60
2022-11-24T11:00:18.684Z,39.78
2022-11-24T11:02:47.801Z,48.30
2022-11-24T11:05:41.803Z,46.05
2022-11-24T11:08:16.499Z,40.20
2022-11-24T11:10:45.333Z,44.15
2022-11-24T11:13:23.956Z,43.70
2022-11-24T11:15:51.384Z,41.67
2022-11-24T11:18:19.609Z,43.85
2022-11-24T11:20:54.886Z,44.38
2022-11-24T11:23:31.239Z,38.85
2022-11-24T11:26:24.003Z,43.53
2022-11-24T11:37:32.944Z,41.50
2022-11-24T11:40:00.320Z,39.80
2022-11-24T11:43:00.855Z,36.45
2022-11-24T11:45:35.530Z,45.55
2022-11-24T11:48:02.939Z,45.33
2022-11-24T11:50:30.188Z,46.35
2022-11-24T11:53:17.232Z,45.80
2022-11-24T11:55:59.054Z,46.13
2022-11-24T11:59:01.049Z,49.58
2022-11-24T12:01:49.498Z,47.22
2022-11-24T12:04:34.950Z,42.13
2022-11-24T12:11:28.855Z,40.88
2022-11-24T12:14:23.694Z,45.03
2022-11-24T12:17:07.226Z,40.58
2022-11-24T12:19:45.734Z,41.97
2022-11-24T12:22:40.069Z,38.67
2022-11-24T12:25:24.986Z,42.20
2022-11-24T12:28:24.364Z,45.83
2022-11-24T12:31:13.347Z,45.17
2022-11-24T12:34:02.041Z,38.60
2022-11-24T12:36:50.329Z,37.72
2022-11-24T12:39:23.021Z,40.08
2022-11-24T12:42:05.433Z,46.15
2022-11-24T12:45:01.888Z,36.50
2022-11-24T12:47:49.963Z,45.15
2022-11-24T12:50:20.170Z,39.80
2022-11-24T12:52:57.131Z,36.80
2022-11-24T12:55:27.718Z,36.22
2022-11-24T12:58:14.809Z,37.85
2022-11-24T13:00:55.553Z,44.30
2022-11-24T13:03:28.210Z,35.58
2022-11-24T13:06:08.319Z,34.50
2022-11-24T13:08:36.773Z,43.45
2022-11-24T13:11:34.722Z,44.83
2022-11-24T13:14:07.318Z,37.08
2022-11-24T13:16:37.142Z,42.55
2022-11-24T13:19:22.683Z,40.03
2022-11-24T13:22:03.449Z,38.20
2022-11-24T13:24:34.764Z,37.20
2022-11-24T13:27:17.060Z,35.40
2022-11-24T13:29:49.062Z,37.33
2022-11-24T13:34:42.732Z,40.30
2022-11-24T13:37:32.135Z,34.70
2022-11-24T13:40:11.870Z,34.28
2022-11-24T13:43:02.743Z,35.20
2022-11-24T13:48:24.881Z,33.15
2022-11-24T13:50:52.155Z,32.45
2022-11-24T13:53:25.447Z,32.20
2022-11-24T13:56:00.687Z,41.70
2022-11-24T13:58:36.941Z,38.40
2022-11-24T14:01:15.890Z,36.60
2022-11-24T14:04:21.589Z,37.28
2022-11-24T14:06:44.174Z,38.08
2022-11-24T14:09:28.185Z,37.95
2022-11-24T14:11:59.768Z,35.63
2022-11-24T14:14:27.282Z,30.70
2022-11-24T14:17:31.385Z,34.45
2022-11-24T14:19:58.575Z,37.90
2022-11-24T14:22:32.206Z,35.30
2022-11-24T14:25:00.627Z,33.10
2022-11-24T14:27:37.470Z,32.35
2022-11-24T14:30:10.419Z,34.70
2022-11-24T14:32:40.136Z,37.25
2022-11-24T14:35:30.235Z,34.13
2022-11-24T14:37:57.445Z,32.45
2022-11-24T14:40:42.717Z,37.72
2022-11-24T14:43:31.696Z,35.05
2022-11-24T14:46:05.423Z,40.45
2022-11-24T14:48:37.643Z,37.80
2022-11-24T14:51:06.538Z,32.28
2022-11-24T14:53:34.439Z,35.92
2022-11-24T14:56:09.030Z,34.28
2022-11-24T14:58:41.856Z,32.58
2022-11-24T15:01:20.587Z,33.63
2022-11-24T15:05:00.756Z,34.00
2022-11-24T15:07:29.646Z,34.03
2022-11-24T15:10:02.384Z,31.65
2022-11-24T15:12:39.769Z,35.53
2022-11-24T15:15:15.644Z,30.08
2022-11-24T15:17:46.876Z,31.70
2022-11-24T15:20:24.811Z,34.38
2022-11-24T15:22:52.685Z,31.58
2022-11-24T15:25:24.918Z,39.42
2022-11-24T15:27:52.546Z,34.97
2022-11-24T15:30:19.388Z,34.03
2022-11-24T15:32:54.144Z,33.30
2022-11-24T15:35:22.969Z,29.15
2022-11-24T15:37:50.162Z,36.70
2022-11-24T15:40:17.867Z,33.92
2022-11-24T15:43:16.826Z,35.60
2022-11-24T15:46:03.853Z,29.98
2022-11-24T15:48:31.158Z,34.10
2022-11-24T15:50:59.565Z,37.50
2022-11-24T15:53:42.694Z,30.75
2022-11-24T15:59:03.524Z,34.08
2022-11-24T16:01:32.733Z,31.23
2022-11-24T16:04:00.095Z,32.03
2022-11-24T16:06:26.757Z,32.97
2022-11-24T16:08:54.467Z,34.53
2022-11-24T16:11:21.869Z,30.40
2022-11-24T16:13:52.943Z,34.00
2022-11-24T16:16:22.589Z,31.73
2022-11-24T16:18:49.345Z,34.42
2022-11-24T16:21:16.064Z,34.20
2022-11-24T16:23:42.803Z,34.22
2022-11-24T16:26:09.972Z,35.28
2022-11-24T16:28:36.818Z,38.03
2022-11-24T16:31:03.836Z,32.20
2022-11-24T16:33:30.805Z,34.83
2022-11-24T16:35:57.724Z,33.83
2022-11-24T16:38:24.664Z,33.88
2022-11-24T16:40:58.671Z,37.10
2022-11-24T16:43:25.361Z,30.98
2022-11-24T16:46:22.221Z,36.15
2022-11-24T16:48:51.251Z,33.65
2022-11-24T16:51:20.390Z,34.63
2022-11-24T16:53:47.663Z,40.38
2022-11-24T16:56:17.638Z,32.90
2022-11-24T16:58:45.095Z,35.17
2022-11-24T17:01:13.858Z,39.28
2022-11-24T17:03:41.392Z,36.20
2022-11-24T17:06:12.141Z,32.85
2022-11-24T17:08:40.309Z,34.10
2022-11-24T17:11:17.149Z,36.08
2022-11-24T17:13:45.683Z,32.83
2022-11-24T17:16:17.227Z,31.80
2022-11-24T17:18:45.715Z,33.80
2022-11-24T17:21:18.406Z,36.15
2022-11-24T17:23:45.349Z,37.15
2022-11-24T17:26:47.474Z,32.75
2022-11-24T17:29:16.800Z,37.00
2022-11-24T17:31:43.716Z,38.55
2022-11-24T17:34:12.078Z,34.33
2022-11-24T17:36:41.525Z,40.83
2022-11-24T17:39:09.495Z,35.03
2022-11-24T17:41:36.292Z,40.33
2022-11-24T17:44:03.164Z,34.17
2022-11-24T17:46:31.006Z,34.58
2022-11-24T17:48:58.008Z,35.45
2022-11-24T17:51:26.413Z,37.17
2022-11-24T17:53:54.584Z,36.88
2022-11-24T17:56:23.865Z,38.42
2022-11-24T17:58:56.137Z,34.97
2022-11-24T18:01:23.390Z,38.78
2022-11-24T18:03:53.480Z,36.80
2022-11-24T18:06:21.279Z,33.83
2022-11-24T18:08:48.432Z,33.55
2022-11-24T18:11:24.707Z,37.38
2022-11-24T18:14:00.648Z,36.85
2022-11-24T18:16:30.262Z,34.67
2022-11-24T18:19:08.400Z,31.55
2022-11-24T18:21:46.160Z,33.90
2022-11-24T18:24:13.792Z,37.15
2022-11-24T18:26:41.836Z,34.92
2022-11-24T18:29:09.470Z,37.28
2022-11-24T18:31:37.193Z,32.67
2022-11-24T18:34:05.672Z,31.73
2022-11-24T18:36:33.047Z,34.03
2022-11-24T18:39:07.846Z,33.67
2022-11-24T18:41:35.235Z,38.83
2022-11-24T18:44:03.022Z,37.20
2022-11-24T18:46:29.856Z,39.47
2022-11-24T18:48:57.581Z,40.13
2022-11-24T18:51:24.270Z,39.25
2022-11-24T18:53:58.095Z,35.35
2022-11-24T18:56:26.097Z,40.38
2022-11-24T18:58:54.414Z,42.03
2022-11-24T19:01:23.710Z,40.55
2022-11-24T19:03:58.933Z,39.47
2022-11-24T19:06:31.998Z,40.08
2022-11-24T19:09:11.055Z,40.88
2022-11-24T19:11:40.146Z,38.75
2022-11-24T19:14:08.798Z,36.40
2022-11-24T19:16:39.453Z,39.70
2022-11-24T19:19:07.453Z,39.35
2022-11-24T19:21:39.124Z,37.08
2022-11-24T19:24:07.533Z,40.80
2022-11-24T19:26:37.628Z,39.50
2022-11-24T19:29:05.779Z,39.67
2022-11-24T19:31:33.444Z,40.47
2022-11-24T19:34:00.829Z,42.53
2022-11-24T19:36:27.715Z,41.35
2022-11-24T19:38:56.425Z,34.30
2022-11-24T19:41:26.325Z,38.95
2022-11-24T19:43:53.709Z,41.47
2022-11-24T19:46:22.217Z,37.08
2022-11-24T19:48:51.219Z,40.25
2022-11-24T19:51:20.293Z,38.97
2022-11-24T19:53:47.432Z,38.10
2022-11-24T19:56:17.786Z,40.70
2022-11-24T19:58:44.973Z,38.85
2022-11-24T20:01:19.045Z,38.80
2022-11-24T20:03:49.951Z,39.47
2022-11-24T20:06:16.893Z,39.42
2022-11-24T20:08:43.751Z,41.45
2022-11-24T20:11:11.933Z,39.97
2022-11-24T20:13:40.477Z,39.70
2022-11-24T20:16:19.017Z,41.17
2022-11-24T20:18:47.643Z,40.42
2022-11-24T20:21:17.309Z,41.78
2022-11-24T20:23:45.518Z,42.60
2022-11-24T20:26:19.685Z,43.28
2022-11-24T20:28:47.038Z,41.78
2022-11-24T20:31:16.912Z,48.20
2022-11-24T20:33:44.972Z,43.80
2022-11-24T20:36:13.383Z,43.10
2022-11-24T20:38:41.086Z,46.65
2022-11-24T20:41:10.841Z,44.67
2022-11-24T20:43:38.300Z,43.15
2022-11-24T20:46:14.388Z,41.20
2022-11-24T20:48:41.367Z,37.40
2022-11-24T20:51:10.802Z,38.15
2022-11-24T20:53:38.806Z,45.25
2022-11-24T20:56:15.653Z,44.45
2022-11-24T20:58:43.500Z,62.55
2022-11-24T21:01:15.927Z,47.97
2022-11-24T21:03:43.821Z,44.78
2022-11-24T21:06:12.320Z,43.22
2022-11-24T21:08:41.324Z,51.95
2022-11-24T21:11:11.129Z,45.03
2022-11-24T21:13:40.238Z,45.60
2022-11-24T21:16:14.433Z,48.72
2022-11-24T21:18:41.628Z,47.78
2022-11-24T21:21:08.531Z,54.78
2022-11-24T21:23:35.303Z,55.15
2022-11-24T21:26:05.720Z,73.13
2022-11-24T21:28:33.913Z,88.55
2022-11-24T21:31:18.371Z,49.55
2022-11-24T21:33:47.547Z,53.15
2022-11-24T21:36:16.446Z,52.63
2022-11-24T21:38:43.745Z,34.22
2022-11-24T21:41:11.830Z,55.28
2022-11-24T21:43:38.675Z,43.83
2022-11-24T21:46:13.538Z,36.03
2022-11-24T21:48:41.457Z,38.20
2022-11-24T21:51:12.887Z,33.83
2022-11-24T21:53:39.711Z,35.80
2022-11-24T21:56:15.647Z,41.63
2022-11-24T21:58:52.735Z,32.08
2022-11-24T22:01:21.606Z,38.75
2022-11-24T22:03:48.560Z,38.15
2022-11-24T22:06:17.712Z,33.78
2022-11-24T22:08:44.939Z,35.40
2022-11-24T22:11:17.594Z,36.22
2022-11-24T22:13:47.733Z,33.97
2022-11-24T22:16:17.797Z,31.83
2022-11-24T22:18:45.521Z,37.83
2022-11-24T22:21:18.152Z,38.65
2022-11-24T22:23:45.204Z,36.25
2022-11-24T22:26:13.060Z,36.00
2022-11-24T22:28:40.430Z,35.00
2022-11-24T22:31:21.725Z,34.67
2022-11-24T22:33:49.340Z,30.88
2022-11-24T22:36:17.635Z,33.85
2022-11-24T22:38:44.879Z,36.17
2022-11-24T22:41:16.647Z,32.55
2022-11-24T22:43:44.616Z,31.17
2022-11-24T22:46:14.242Z,31.08
2022-11-24T22:48:41.749Z,36.25
2022-11-24T22:51:11.372Z,32.30
2022-11-24T22:53:38.562Z,33.95
2022-11-24T22:56:11.004Z,31.52
2022-11-24T22:58:39.293Z,33.80
2022-11-24T23:01:11.989Z,37.47
2022-11-24T23:03:39.242Z,35.17
2022-11-24T23:06:16.038Z,34.35
2022-11-24T23:08:43.023Z,33.58
2022-11-24T23:11:15.244Z,30.52
2022-11-24T23:13:43.535Z,32.00
2022-11-24T23:16:14.658Z,36.85
2022-11-24T23:18:42.276Z,32.58
2022-11-24T23:21:26.466Z,34.05
2022-11-24T23:23:53.891Z,33.55
2022-11-24T23:26:26.144Z,33.65
2022-11-24T23:28:53.325Z,34.63
2022-11-24T23:31:24.068Z,32.00
2022-11-24T23:33:51.239Z,35.38
2022-11-24T23:36:19.848Z,35.63
2022-11-24T23:38:47.294Z,34.38
2022-11-24T23:41:17.161Z,32.63
2022-11-24T23:43:44.169Z,37.85
2022-11-24T23:46:20.492Z,39.20
2022-11-24T23:48:47.928Z,32.97
2022-11-24T23:51:16.369Z,42.28
2022-11-24T23:53:44.179Z,36.33
2022-11-24T23:56:19.516Z,38.08
2022-11-24T23:58:46.413Z,37.33
